Time;durP1;ratioP1;P1;durP2;ratioP2;P2;SDS_P1;SDS_P2;PMS_P1;PMS_P2;Temp;Humidity;BMP_temperature;BMP_pressure;BME280_temperature;BME280_humidity;BME280_pressure;Samples;Min_cycle;Max_cycle;Signal;HPM_P1;HPM_P2
2023/06/10 00:01:25;;;;;;;12.18;5.13;;;18.90;99.90;;;;;;5003056;28;20251;-71
2023/06/10 00:03:51;;;;;;;8.00;4.35;;;18.90;99.90;;;;;;5006356;28;20205;-71
2023/06/10 00:06:17;;;;;;;8.88;4.78;;;18.80;99.90;;;;;;5004202;28;20232;-70
2023/06/10 00:08:43;;;;;;;9.13;4.47;;;18.90;99.90;;;;;;5006677;28;20268;-70
2023/06/10 00:11:10;;;;;;;10.02;5.07;;;18.90;99.90;;;;;;5004090;28;20424;-70
2023/06/10 00:13:36;;;;;;;7.82;5.05;;;18.90;99.90;;;;;;5005680;28;20206;-71
2023/06/10 00:16:03;;;;;;;9.02;4.90;;;18.70;99.90;;;;;;5004463;28;20196;-71
2023/06/10 00:18:31;;;;;;;7.65;4.68;;;18.70;99.90;;;;;;5004356;28;20759;-71
2023/06/10 00:20:57;;;;;;;13.63;8.57;;;18.70;99.90;;;;;;5007327;28;20169;-71
2023/06/10 00:23:24;;;;;;;8.88;5.80;;;18.70;99.90;;;;;;5004225;28;20177;-71
2023/06/10 00:25:50;;;;;;;12.95;6.32;;;18.70;99.90;;;;;;5001377;28;20280;-71
2023/06/10 00:28:16;;;;;;;13.30;5.13;;;18.80;99.90;;;;;;5001776;28;20307;-71
2023/06/10 00:30:41;;;;;;;11.30;5.30;;;18.80;99.90;;;;;;5003458;28;20343;-71
2023/06/10 00:33:07;;;;;;;7.38;4.30;;;18.90;99.90;;;;;;5006210;28;20225;-71
2023/06/10 00:35:32;;;;;;;12.63;4.82;;;18.70;99.90;;;;;;5002947;28;20205;-71
2023/06/10 00:37:58;;;;;;;7.45;4.32;;;18.80;99.90;;;;;;5006704;28;20592;-71
2023/06/10 00:40:24;;;;;;;9.73;4.38;;;18.60;99.90;;;;;;5008231;28;20256;-71
2023/06/10 00:42:49;;;;;;;8.48;4.40;;;18.60;99.90;;;;;;5007364;28;20618;-70
2023/06/10 00:45:15;;;;;;;11.68;4.60;;;18.50;99.90;;;;;;4999498;28;20574;-70
2023/06/10 00:47:41;;;;;;;11.55;5.00;;;18.50;99.90;;;;;;5002182;28;20197;-71
2023/06/10 00:50:07;;;;;;;10.27;5.28;;;18.50;99.90;;;;;;5003018;28;20295;-70
2023/06/10 00:52:35;;;;;;;9.15;4.72;;;18.60;99.90;;;;;;5005990;28;20238;-71
2023/06/10 00:55:00;;;;;;;11.13;5.57;;;18.60;99.90;;;;;;5003620;28;20201;-70
2023/06/10 00:57:26;;;;;;;10.40;5.13;;;18.60;99.90;;;;;;5004095;28;20240;-70
2023/06/10 00:59:52;;;;;;;8.20;4.20;;;18.50;99.90;;;;;;5003945;28;20165;-71
2023/06/10 01:02:17;;;;;;;11.18;4.80;;;18.50;99.90;;;;;;5000327;28;20177;-70
2023/06/10 01:04:43;;;;;;;7.60;4.13;;;18.50;99.90;;;;;;5001768;28;20583;-71
2023/06/10 01:07:19;;;;;;;12.07;4.63;;;18.50;99.90;;;;;;4998882;28;20544;-71
2023/06/10 01:09:57;;;;;;;12.70;4.38;;;18.50;99.90;;;;;;4998000;28;20201;-71
2023/06/10 01:12:34;;;;;;;12.25;4.95;;;18.60;99.90;;;;;;5002432;28;20224;-70
2023/06/10 01:15:01;;;;;;;8.88;4.90;;;18.60;99.90;;;;;;5005502;28;20199;-70
2023/06/10 01:17:27;;;;;;;13.00;5.10;;;18.50;99.90;;;;;;5006215;28;20224;-69
2023/06/10 01:19:56;;;;;;;11.05;5.03;;;18.40;99.90;;;;;;5008925;28;20204;-68
2023/06/10 01:22:28;;;;;;;9.77;4.82;;;18.50;99.90;;;;;;5003908;28;20750;-69
2023/06/10 01:24:58;;;;;;;10.88;5.38;;;18.40;99.90;;;;;;5000075;28;20205;-68
2023/06/10 01:27:29;;;;;;;8.02;4.38;;;18.20;99.90;;;;;;4999717;28;20217;-69
2023/06/10 01:30:03;;;;;;;8.75;4.30;;;18.30;99.90;;;;;;4997200;28;20174;-70
2023/06/10 01:32:43;;;;;;;9.30;4.80;;;18.10;99.90;;;;;;5004247;28;20340;-70
2023/06/10 01:35:10;;;;;;;10.32;5.03;;;18.20;99.90;;;;;;4998996;28;20212;-70
2023/06/10 01:37:37;;;;;;;12.48;5.50;;;18.30;99.90;;;;;;5002332;28;20290;-70
2023/06/10 01:40:06;;;;;;;9.75;4.45;;;18.20;99.90;;;;;;5001146;28;20192;-70
2023/06/10 01:42:32;;;;;;;10.50;4.85;;;18.10;99.90;;;;;;5004068;28;20197;-70
2023/06/10 01:44:59;;;;;;;8.70;4.53;;;18.10;99.90;;;;;;5003511;28;20698;-69
2023/06/10 01:47:24;;;;;;;11.20;5.22;;;18.10;99.90;;;;;;5003516;28;20174;-70
2023/06/10 01:49:50;;;;;;;10.88;4.70;;;18.10;99.90;;;;;;5010442;28;20287;-70
2023/06/10 01:52:16;;;;;;;12.23;5.18;;;17.90;99.90;;;;;;5010188;28;20212;-70
2023/06/10 01:54:41;;;;;;;13.77;4.85;;;17.90;99.90;;;;;;5013660;28;20673;-70
2023/06/10 01:57:07;;;;;;;12.27;5.22;;;18.00;99.90;;;;;;5009150;28;20316;-70
2023/06/10 01:59:32;;;;;;;7.30;4.55;;;17.90;99.90;;;;;;5011640;28;20172;-70
2023/06/10 02:01:58;;;;;;;12.25;4.53;;;18.00;99.90;;;;;;5010484;28;20574;-70
2023/06/10 02:04:24;;;;;;;7.97;5.25;;;18.00;99.90;;;;;;5008811;28;20213;-70
2023/06/10 02:06:50;;;;;;;7.78;3.95;;;18.00;99.90;;;;;;5007578;28;20208;-70
2023/06/10 02:09:17;;;;;;;7.45;4.10;;;18.00;99.90;;;;;;5005929;28;20213;-70
2023/06/10 02:11:43;;;;;;;9.40;4.32;;;18.00;99.90;;;;;;5007467;28;20197;-70
2023/06/10 02:14:09;;;;;;;10.80;5.03;;;18.00;99.90;;;;;;5005956;28;20733;-70
2023/06/10 02:16:35;;;;;;;9.00;4.60;;;18.00;99.90;;;;;;5003215;28;20208;-71
2023/06/10 02:19:00;;;;;;;8.77;4.60;;;17.90;99.90;;;;;;5007887;28;20620;-69
2023/06/10 02:21:26;;;;;;;13.10;5.10;;;18.00;99.90;;;;;;5004634;28;20240;-69
2023/06/10 02:23:51;;;;;;;11.27;4.85;;;17.80;99.90;;;;;;5005090;28;20177;-69
2023/06/10 02:26:17;;;;;;;9.07;5.07;;;17.80;99.90;;;;;;5002005;28;20232;-71
2023/06/10 02:28:43;;;;;;;13.63;4.95;;;17.80;99.90;;;;;;5006460;28;20256;-70
2023/06/10 02:31:09;;;;;;;11.27;4.97;;;17.80;99.90;;;;;;5012385;28;20196;-71
2023/06/10 02:33:35;;;;;;;14.40;5.15;;;17.60;99.90;;;;;;5005262;28;20208;-70
2023/06/10 02:36:00;;;;;;;12.02;5.18;;;17.70;99.90;;;;;;5007699;28;20204;-71
2023/06/10 02:38:26;;;;;;;13.00;5.72;;;17.60;99.90;;;;;;4996486;28;20207;-70
2023/06/10 02:40:51;;;;;;;11.13;4.82;;;17.50;99.90;;;;;;5004571;28;20205;-71
2023/06/10 02:43:17;;;;;;;9.32;5.00;;;17.60;99.90;;;;;;5004320;28;20209;-69
2023/06/10 02:45:43;;;;;;;12.48;4.70;;;17.60;99.90;;;;;;5003070;28;20255;-69
2023/06/10 02:48:08;;;;;;;12.25;5.32;;;17.70;99.90;;;;;;5003761;28;20209;-69
2023/06/10 02:50:34;;;;;;;9.13;4.70;;;17.60;99.90;;;;;;5003459;28;20178;-69
2023/06/10 02:53:00;;;;;;;8.57;4.97;;;17.70;99.90;;;;;;5002750;28;20228;-69
2023/06/10 02:55:26;;;;;;;9.27;5.05;;;17.70;99.90;;;;;;5001092;28;20341;-70
2023/06/10 02:57:53;;;;;;;10.73;4.82;;;17.60;99.90;;;;;;5004575;28;20209;-70
2023/06/10 03:00:20;;;;;;;10.70;4.65;;;17.60;99.90;;;;;;5007686;28;20233;-70
2023/06/10 03:02:46;;;;;;;7.30;5.10;;;17.70;99.90;;;;;;5005310;28;20667;-70
2023/06/10 03:05:12;;;;;;;9.57;4.20;;;17.60;99.90;;;;;;4999381;28;20219;-70
2023/06/10 03:07:38;;;;;;;11.98;5.32;;;17.70;99.90;;;;;;5000757;28;20680;-69
2023/06/10 03:10:05;;;;;;;9.75;5.15;;;17.70;99.90;;;;;;5004403;28;20232;-70
2023/06/10 03:12:31;;;;;;;11.30;5.47;;;17.70;99.90;;;;;;5004801;28;20362;-70
2023/06/10 03:14:57;;;;;;;9.55;5.10;;;17.70;99.90;;;;;;5003091;28;20233;-69
2023/06/10 03:17:22;;;;;;;8.68;4.97;;;17.60;99.90;;;;;;5002480;28;20184;-68
2023/06/10 03:19:48;;;;;;;12.63;7.25;;;17.60;99.90;;;;;;5004969;28;20205;-70
2023/06/10 03:22:16;;;;;;;9.05;5.28;;;17.70;99.90;;;;;;5003199;28;20634;-70
2023/06/10 03:24:43;;;;;;;10.25;5.90;;;17.50;99.90;;;;;;5002342;28;20208;-70
2023/06/10 03:27:11;;;;;;;8.68;4.72;;;17.50;99.90;;;;;;5002540;28;20259;-70
2023/06/10 03:29:37;;;;;;;10.32;5.22;;;17.60;99.90;;;;;;5006751;28;20170;-70
2023/06/10 03:32:03;;;;;;;11.57;5.10;;;17.60;99.90;;;;;;5003406;28;20573;-70
2023/06/10 03:34:29;;;;;;;17.52;5.80;;;17.60;99.90;;;;;;4999790;28;20221;-70
2023/06/10 03:36:56;;;;;;;9.90;5.72;;;17.80;99.90;;;;;;5002689;28;20304;-69
2023/06/10 03:39:23;;;;;;;13.02;5.43;;;17.90;99.90;;;;;;5003347;28;20708;-69
2023/06/10 03:41:49;;;;;;;10.30;5.15;;;18.00;99.90;;;;;;5002933;28;20177;-69
2023/06/10 03:44:15;;;;;;;9.73;5.57;;;18.00;99.90;;;;;;5003802;28;20200;-70
2023/06/10 03:46:41;;;;;;;11.48;5.80;;;18.20;99.90;;;;;;5000009;28;20308;-70
2023/06/10 03:49:06;;;;;;;12.75;5.53;;;18.00;99.90;;;;;;5003805;28;20205;-70
2023/06/10 03:51:32;;;;;;;9.65;5.32;;;17.80;99.90;;;;;;4999607;28;20233;-69
2023/06/10 03:53:58;;;;;;;11.10;5.07;;;17.90;99.90;;;;;;5002761;28;20279;-70
2023/06/10 03:56:23;;;;;;;12.13;5.40;;;17.90;99.90;;;;;;5001406;28;20211;-68
2023/06/10 03:58:49;;;;;;;11.15;5.72;;;17.80;99.90;;;;;;5001256;28;20412;-70
2023/06/10 04:01:15;;;;;;;13.65;5.93;;;17.80;99.90;;;;;;5002495;28;20201;-70
2023/06/10 04:03:41;;;;;;;10.75;5.53;;;17.90;99.90;;;;;;5001071;28;20213;-70
2023/06/10 04:06:07;;;;;;;10.68;5.43;;;18.00;99.90;;;;;;5001414;28;20213;-70
2023/06/10 04:08:33;;;;;;;11.77;5.45;;;18.00;99.90;;;;;;5003420;28;20637;-70
2023/06/10 04:10:59;;;;;;;11.00;5.82;;;17.90;99.90;;;;;;5001991;28;20204;-70
2023/06/10 04:13:25;;;;;;;11.35;5.43;;;18.00;99.90;;;;;;4999677;28;20232;-69
2023/06/10 04:15:50;;;;;;;12.98;5.82;;;17.80;99.90;;;;;;5003238;28;20213;-70
2023/06/10 04:18:16;;;;;;;11.07;5.63;;;18.00;99.90;;;;;;5003914;28;20748;-69
2023/06/10 04:20:42;;;;;;;10.32;5.90;;;18.20;99.90;;;;;;5003351;28;20184;-69
2023/06/10 04:23:07;;;;;;;16.05;5.47;;;19.40;99.90;;;;;;4999205;28;20675;-69
2023/06/10 04:25:33;;;;;;;9.00;4.60;;;20.70;99.90;;;;;;5000133;28;20236;-69
2023/06/10 04:27:59;;;;;;;8.43;5.10;;;20.70;99.90;;;;;;5001700;28;20558;-69
2023/06/10 04:30:25;;;;;;;10.18;4.97;;;20.50;99.90;;;;;;5001336;28;20220;-69
2023/06/10 04:32:50;;;;;;;9.85;5.55;;;20.10;99.90;;;;;;5001227;28;20202;-69
2023/06/10 04:35:16;;;;;;;10.60;5.85;;;19.90;99.90;;;;;;5026164;22;20232;-75
2023/06/10 04:37:42;;;;;;;9.38;5.00;;;19.60;99.90;;;;;;5028982;28;20209;-77
2023/06/10 04:40:08;;;;;;;10.50;5.50;;;19.50;99.90;;;;;;5040434;28;20199;-77
2023/06/10 04:42:35;;;;;;;8.88;5.03;;;19.30;99.90;;;;;;5034960;28;20573;-76
2023/06/10 04:45:00;;;;;;;9.35;4.93;;;19.20;99.90;;;;;;5033322;28;20699;-77
2023/06/10 04:47:26;;;;;;;10.60;5.35;;;19.20;99.90;;;;;;5037022;28;20312;-77
2023/06/10 04:49:52;;;;;;;11.45;5.40;;;19.10;99.90;;;;;;5038270;28;20200;-77
2023/06/10 04:52:18;;;;;;;9.57;5.38;;;18.90;99.90;;;;;;5036475;28;20215;-77
2023/06/10 04:54:43;;;;;;;8.82;5.53;;;18.80;99.90;;;;;;5034050;28;20325;-77
2023/06/10 04:57:11;;;;;;;10.48;5.85;;;18.80;99.90;;;;;;5038165;28;20682;-77
2023/06/10 04:59:38;;;;;;;11.73;5.63;;;18.90;99.90;;;;;;5039277;28;20214;-77
2023/06/10 05:02:04;;;;;;;9.82;5.55;;;18.90;99.90;;;;;;5031783;28;20211;-77
2023/06/10 05:04:30;;;;;;;9.82;5.82;;;19.00;99.90;;;;;;5035390;28;20207;-76
2023/06/10 05:06:56;;;;;;;9.38;5.60;;;19.00;99.90;;;;;;5036142;28;20220;-77
2023/06/10 05:09:22;;;;;;;10.68;5.35;;;19.10;99.90;;;;;;5035814;28;20290;-77
2023/06/10 05:11:48;;;;;;;9.45;5.75;;;19.20;99.90;;;;;;5032706;28;20184;-78
2023/06/10 05:14:16;;;;;;;8.63;5.00;;;19.20;99.90;;;;;;5036420;28;20168;-77
2023/06/10 05:16:43;;;;;;;16.77;5.90;;;19.20;99.90;;;;;;5032365;28;20287;-77
2023/06/10 05:19:08;;;;;;;12.40;5.65;;;19.20;99.90;;;;;;5041743;28;20203;-77
2023/06/10 05:21:34;;;;;;;12.05;6.00;;;19.20;99.90;;;;;;5036751;28;20214;-76
2023/06/10 05:24:00;;;;;;;10.52;5.40;;;19.30;99.90;;;;;;5039091;28;20536;-78
2023/06/10 05:26:25;;;;;;;8.95;5.55;;;19.30;99.90;;;;;;5035812;28;20607;-77
2023/06/10 05:28:52;;;;;;;11.60;6.05;;;19.20;99.90;;;;;;5038561;28;20207;-78
2023/06/10 05:31:18;;;;;;;11.60;5.80;;;19.30;99.90;;;;;;5037811;28;20287;-77
2023/06/10 05:33:43;;;;;;;9.15;5.75;;;19.90;99.90;;;;;;5037505;28;20312;-77
2023/06/10 05:36:09;;;;;;;11.48;5.93;;;20.80;99.90;;;;;;5038046;28;20344;-78
2023/06/10 05:38:34;;;;;;;15.40;6.22;;;20.90;99.90;;;;;;5033219;28;20230;-77
2023/06/10 05:41:00;;;;;;;8.82;4.90;;;21.20;99.90;;;;;;5019287;28;20254;-77
2023/06/10 05:43:26;;;;;;;11.38;5.40;;;21.80;99.90;;;;;;5028233;28;20257;-77
2023/06/10 05:45:52;;;;;;;7.05;4.90;;;22.30;99.90;;;;;;5031480;28;20201;-78
2023/06/10 05:48:19;;;;;;;10.25;5.43;;;22.70;99.90;;;;;;5028443;28;20708;-78
2023/06/10 05:50:48;;;;;;;9.25;5.05;;;23.30;99.90;;;;;;5028968;28;20188;-78
2023/06/10 05:53:14;;;;;;;7.63;4.85;;;24.20;99.90;;;;;;5042604;28;20227;-77
2023/06/10 05:55:45;;;;;;;9.60;5.70;;;24.40;99.90;;;;;;5031499;28;20263;-78
2023/06/10 05:58:12;;;;;;;9.55;5.45;;;24.00;99.90;;;;;;5035124;28;20574;-77
2023/06/10 06:00:38;;;;;;;9.02;5.40;;;23.50;99.90;;;;;;5033039;28;20228;-78
2023/06/10 06:03:08;;;;;;;8.70;5.65;;;23.50;99.90;;;;;;5040327;28;20182;-77
2023/06/10 06:05:35;;;;;;;8.18;5.68;;;23.20;99.90;;;;;;5036262;28;20270;-77
2023/06/10 06:08:10;;;;;;;12.55;5.93;;;22.80;99.90;;;;;;5035185;28;20241;-77
2023/06/10 06:10:36;;;;;;;11.98;6.43;;;22.30;99.90;;;;;;5034604;28;20299;-77
2023/06/10 06:13:16;;;;;;;11.00;5.38;;;22.10;99.90;;;;;;5045503;28;20214;-79
2023/06/10 06:15:42;;;;;;;9.13;5.82;;;21.80;99.90;;;;;;5034738;28;20631;-76
2023/06/10 06:18:07;;;;;;;10.48;6.28;;;21.70;99.90;;;;;;5040573;28;20212;-76
2023/06/10 06:20:33;;;;;;;9.32;5.88;;;21.60;99.90;;;;;;5034557;28;20179;-75
2023/06/10 06:22:59;;;;;;;13.35;7.03;;;21.60;99.90;;;;;;5035310;28;20262;-76
2023/06/10 06:25:24;;;;;;;11.25;7.53;;;21.80;99.90;;;;;;5031491;28;20569;-77
2023/06/10 06:27:50;;;;;;;11.38;6.43;;;22.10;99.90;;;;;;5022760;28;20201;-77
2023/06/10 06:30:16;;;;;;;10.88;6.10;;;22.00;99.90;;;;;;5041077;28;20235;-78
2023/06/10 06:32:41;;;;;;;12.23;8.65;;;22.50;99.90;;;;;;5039453;28;20753;-77
2023/06/10 06:35:07;;;;;;;10.50;6.63;;;22.80;99.90;;;;;;5043918;28;20313;-77
2023/06/10 06:37:33;;;;;;;14.00;7.63;;;23.00;99.90;;;;;;5039642;28;20231;-77
2023/06/10 06:39:59;;;;;;;12.13;5.53;;;22.80;99.90;;;;;;5036561;28;20619;-77
2023/06/10 06:42:25;;;;;;;9.68;5.68;;;23.40;99.90;;;;;;5040105;28;20207;-77
2023/06/10 06:44:50;;;;;;;10.50;5.63;;;24.40;99.90;;;;;;5036621;28;20262;-77
2023/06/10 06:47:19;;;;;;;14.48;5.93;;;26.20;99.90;;;;;;5044676;28;20238;-77
2023/06/10 06:49:48;;;;;;;7.75;5.32;;;26.60;99.90;;;;;;5041661;28;20207;-77
2023/06/10 06:52:15;;;;;;;9.45;5.55;;;27.30;99.90;;;;;;5042095;28;20669;-76
2023/06/10 06:54:41;;;;;;;7.80;5.63;;;26.80;99.90;;;;;;5040959;28;20306;-76
2023/06/10 06:57:07;;;;;;;9.95;5.78;;;26.50;99.90;;;;;;5039090;28;20746;-76
2023/06/10 06:59:33;;;;;;;11.65;6.28;;;25.90;99.90;;;;;;5039728;28;20160;-77
2023/06/10 07:01:58;;;;;;;9.02;5.88;;;25.00;99.90;;;;;;5037630;28;20285;-77
2023/06/10 07:04:24;;;;;;;12.30;6.60;;;24.40;99.90;;;;;;5042907;28;20207;-76
2023/06/10 07:06:50;;;;;;;13.55;6.75;;;23.70;99.90;;;;;;5034753;28;20209;-77
2023/06/10 07:09:16;;;;;;;15.75;6.50;;;23.40;99.90;;;;;;5032907;28;20218;-76
2023/06/10 07:11:41;;;;;;;10.30;5.80;;;23.40;99.90;;;;;;5038137;28;20239;-77
2023/06/10 07:14:07;;;;;;;8.30;5.72;;;24.70;99.90;;;;;;5042122;28;20195;-77
2023/06/10 07:16:33;;;;;;;13.50;5.78;;;27.00;99.90;;;;;;5036703;28;20585;-77
2023/06/10 07:18:59;;;;;;;7.60;5.60;;;28.40;99.90;;;;;;5040694;28;20254;-76
2023/06/10 07:21:25;;;;;;;12.18;5.70;;;29.20;99.90;;;;;;5039590;28;20208;-76
2023/06/10 07:23:53;;;;;;;7.35;5.50;;;30.70;99.90;;;;;;5039195;28;20173;-76
2023/06/10 07:26:19;;;;;;;12.07;6.10;;;32.40;99.90;;;;;;5042280;28;20286;-76
2023/06/10 07:28:45;;;;;;;9.10;5.60;;;33.00;99.90;;;;;;5040154;28;20215;-76
2023/06/10 07:31:11;;;;;;;6.35;5.53;;;32.70;99.90;;;;;;5042115;28;20200;-76
2023/06/10 07:33:39;;;;;;;7.88;5.65;;;32.10;99.90;;;;;;5039384;28;20208;-76
2023/06/10 07:36:06;;;;;;;9.52;6.15;;;31.90;99.90;;;;;;5031396;28;20208;-76
2023/06/10 07:38:31;;;;;;;6.90;5.53;;;31.00;99.90;;;;;;5039373;28;20180;-74
2023/06/10 07:40:57;;;;;;;8.70;5.57;;;30.30;99.90;;;;;;5031729;28;20201;-76
2023/06/10 07:43:24;;;;;;;6.63;5.88;;;31.30;99.90;;;;;;5037416;28;20208;-76
2023/06/10 07:45:50;;;;;;;9.00;5.72;;;32.10;99.90;;;;;;5029983;28;20235;-76
2023/06/10 07:48:16;;;;;;;7.55;6.47;;;33.10;99.90;;;;;;5038454;28;20296;-75
2023/06/10 07:50:41;;;;;;;7.93;5.82;;;33.20;99.40;;;;;;5038383;28;20176;-76
2023/06/10 07:53:08;;;;;;;9.45;6.13;;;33.40;98.30;;;;;;5039283;28;20701;-77
2023/06/10 07:55:34;;;;;;;9.65;5.65;;;33.70;96.90;;;;;;5035335;28;20207;-77
2023/06/10 07:58:00;;;;;;;11.38;8.80;;;33.80;96.60;;;;;;5039813;28;20215;-75
2023/06/10 08:00:25;;;;;;;9.70;6.45;;;33.70;95.60;;;;;;5040245;28;20211;-75
2023/06/10 08:02:51;;;;;;;10.65;6.63;;;33.40;96.00;;;;;;5038810;28;20206;-76
2023/06/10 08:05:17;;;;;;;10.55;6.45;;;32.50;96.20;;;;;;5040159;28;20190;-76
2023/06/10 08:07:43;;;;;;;11.10;9.35;;;30.80;98.60;;;;;;5039330;28;20208;-76
2023/06/10 08:10:09;;;;;;;9.73;6.85;;;29.40;99.90;;;;;;5042283;28;20207;-77
2023/06/10 08:12:34;;;;;;;10.68;6.80;;;28.30;99.90;;;;;;5038791;28;20290;-75
2023/06/10 08:15:01;;;;;;;10.35;6.35;;;27.40;99.90;;;;;;5027584;28;20211;-75
2023/06/10 08:17:26;;;;;;;9.25;5.80;;;27.20;99.90;;;;;;5036523;28;20183;-77
2023/06/10 08:19:52;;;;;;;12.43;6.72;;;27.40;99.90;;;;;;5035523;28;20209;-75
2023/06/10 08:22:18;;;;;;;8.25;6.65;;;27.30;99.90;;;;;;5035757;28;20212;-76
2023/06/10 08:24:43;;;;;;;12.48;6.80;;;27.50;99.90;;;;;;5029711;28;20606;-75
2023/06/10 08:27:10;;;;;;;13.40;6.63;;;28.30;99.90;;;;;;5034917;28;20220;-75
2023/06/10 08:29:35;;;;;;;10.77;7.22;;;28.10;99.90;;;;;;5040806;28;20176;-76
2023/06/10 08:32:01;;;;;;;9.27;6.47;;;28.40;99.90;;;;;;5035765;28;20227;-76
2023/06/10 08:34:27;;;;;;;9.00;6.50;;;29.00;99.90;;;;;;5040161;28;20251;-76
2023/06/10 08:36:55;;;;;;;10.35;6.18;;;30.50;99.90;;;;;;5033045;28;20792;-76
2023/06/10 08:39:23;;;;;;;8.88;6.90;;;31.70;99.90;;;;;;5040369;28;20286;-76
2023/06/10 08:42:03;;;;;;;7.45;6.63;;;32.30;99.90;;;;;;5039313;28;20584;-76
2023/06/10 08:44:30;;;;;;;8.38;5.70;;;31.90;99.90;;;;;;5040445;28;20168;-76
2023/06/10 08:47:00;;;;;;;10.13;6.07;;;32.80;99.90;;;;;;5039082;28;20213;-76
2023/06/10 08:49:30;;;;;;;9.57;6.50;;;33.50;99.40;;;;;;5039620;28;20244;-76
2023/06/10 08:51:59;;;;;;;10.32;7.25;;;32.80;98.00;;;;;;5035601;28;20301;-76
2023/06/10 08:54:29;;;;;;;9.52;6.65;;;31.40;99.90;;;;;;5036272;28;20303;-76
2023/06/10 08:56:57;;;;;;;7.85;5.97;;;31.00;99.90;;;;;;5027984;28;20655;-76
2023/06/10 08:59:24;;;;;;;10.85;6.47;;;30.30;99.90;;;;;;5034185;28;20731;-76
2023/06/10 09:01:51;;;;;;;9.93;6.45;;;31.10;99.90;;;;;;5035635;28;20219;-76
2023/06/10 09:04:18;;;;;;;8.85;6.50;;;30.10;99.90;;;;;;5038326;28;20299;-78
2023/06/10 09:06:45;;;;;;;10.43;7.10;;;30.00;99.90;;;;;;5035528;28;20647;-77
2023/06/10 09:09:13;;;;;;;11.13;7.53;;;30.10;99.90;;;;;;5040211;28;20275;-77
2023/06/10 09:11:40;;;;;;;17.33;11.63;;;30.10;99.90;;;;;;5035228;28;20202;-76
2023/06/10 09:14:06;;;;;;;9.85;7.57;;;30.60;99.90;;;;;;5032602;28;20254;-77
2023/06/10 09:16:32;;;;;;;11.73;7.10;;;30.30;99.90;;;;;;5036108;28;20203;-77
2023/06/10 09:18:58;;;;;;;8.50;6.50;;;29.80;99.90;;;;;;5036691;28;20574;-77
2023/06/10 09:21:25;;;;;;;10.18;6.10;;;29.00;99.90;;;;;;5039238;28;20626;-77
2023/06/10 09:23:51;;;;;;;11.35;6.35;;;28.60;99.90;;;;;;5037063;28;20168;-77
2023/06/10 09:26:18;;;;;;;9.95;6.15;;;28.50;99.90;;;;;;5039960;28;20241;-77
2023/06/10 09:28:47;;;;;;;11.27;6.38;;;28.30;99.90;;;;;;5037679;28;20204;-77
2023/06/10 09:31:13;;;;;;;11.00;6.45;;;28.00;99.90;;;;;;5029992;28;20204;-77
2023/06/10 09:33:40;;;;;;;10.50;5.95;;;27.80;99.90;;;;;;5035687;28;20238;-77
2023/06/10 09:36:06;;;;;;;10.88;5.88;;;27.50;99.90;;;;;;5033912;28;20212;-77
2023/06/10 09:38:34;;;;;;;12.63;6.68;;;27.60;99.90;;;;;;5035823;28;20172;-77
2023/06/10 09:41:03;;;;;;;11.93;7.15;;;27.50;99.90;;;;;;5029683;28;20591;-77
2023/06/10 09:43:43;;;;;;;10.23;7.40;;;27.30;99.90;;;;;;5039421;28;20206;-77
2023/06/10 09:46:17;;;;;;;12.63;7.03;;;27.40;99.90;;;;;;5030994;28;20584;-77
2023/06/10 09:48:45;;;;;;;11.05;6.47;;;27.20;99.90;;;;;;5034052;28;20326;-75
2023/06/10 09:51:11;;;;;;;8.88;7.45;;;27.00;99.90;;;;;;5038492;28;20207;-77
2023/06/10 09:53:37;;;;;;;9.88;7.47;;;26.70;99.90;;;;;;5036289;28;20174;-76
2023/06/10 09:56:03;;;;;;;10.57;6.65;;;26.10;99.90;;;;;;5035384;28;20212;-76
2023/06/10 09:58:42;;;;;;;9.70;6.72;;;25.80;99.90;;;;;;5038771;28;20203;-76
2023/06/10 10:01:12;;;;;;;15.88;7.20;;;25.70;99.90;;;;;;5039655;28;20837;-76
2023/06/10 10:03:50;;;;;;;9.52;6.78;;;25.60;99.90;;;;;;5044312;28;20211;-76
2023/06/10 10:06:19;;;;;;;9.93;6.72;;;25.50;99.90;;;;;;5041832;28;20720;-78
2023/06/10 10:08:46;;;;;;;9.63;6.32;;;25.10;99.90;;;;;;5040089;28;20207;-75
2023/06/10 10:11:14;;;;;;;9.02;6.70;;;24.70;99.90;;;;;;5014684;28;20218;-73
2023/06/10 10:13:40;;;;;;;9.93;6.75;;;24.50;99.90;;;;;;5029900;28;20579;-73
2023/06/10 10:16:43;;;;;;;10.02;7.10;;;24.20;99.90;;;;;;5032047;28;20236;-74
2023/06/10 10:19:15;;;;;;;11.00;7.28;;;24.20;99.90;;;;;;5024527;28;20714;-73
2023/06/10 10:21:52;;;;;;;10.32;7.55;;;24.10;99.90;;;;;;5039460;28;20243;-76
2023/06/10 10:24:23;;;;;;;10.32;7.60;;;24.00;99.90;;;;;;5030680;28;20223;-75
2023/06/10 10:26:50;;;;;;;10.23;7.50;;;24.00;99.90;;;;;;5036296;28;20192;-76
2023/06/10 10:29:33;;;;;;;10.02;7.13;;;23.80;99.90;;;;;;5039777;28;20619;-78
2023/06/10 10:32:00;;;;;;;11.43;8.05;;;23.70;99.90;;;;;;5035402;28;20216;-78
2023/06/10 10:34:52;;;;;;;12.82;8.27;;;23.80;99.90;;;;;;5043230;28;20200;-77
2023/06/10 10:37:19;;;;;;;8.50;6.35;;;23.70;99.90;;;;;;5023165;28;20220;-74
2023/06/10 10:39:45;;;;;;;10.70;7.43;;;23.80;99.90;;;;;;5038035;28;20195;-75
2023/06/10 10:42:11;;;;;;;8.48;6.57;;;23.70;99.90;;;;;;5037073;28;20635;-75
2023/06/10 10:44:41;;;;;;;9.20;7.00;;;23.60;99.90;;;;;;5039212;28;20175;-75
2023/06/10 10:47:11;;;;;;;8.15;5.97;;;23.70;99.90;;;;;;5035007;28;20254;-74
2023/06/10 10:49:38;;;;;;;10.00;5.53;;;23.80;99.90;;;;;;5022887;28;20690;-76
2023/06/10 10:52:06;;;;;;;6.80;4.88;;;24.00;99.90;;;;;;5028071;28;20248;-75
2023/06/10 10:54:37;;;;;;;6.57;5.22;;;24.10;99.90;;;;;;5030575;28;20204;-76
2023/06/10 10:57:12;;;;;;;11.27;6.93;;;24.20;99.90;;;;;;5027877;28;20583;-75
2023/06/10 10:59:45;;;;;;;8.40;5.20;;;24.30;99.90;;;;;;5035707;28;20203;-76
2023/06/10 11:02:15;;;;;;;7.13;6.22;;;24.40;99.90;;;;;;5033372;28;20200;-76
2023/06/10 11:04:46;;;;;;;6.00;5.40;;;24.70;99.90;;;;;;5033521;28;20647;-76
2023/06/10 11:07:15;;;;;;;7.15;4.75;;;24.80;99.90;;;;;;5037481;28;20231;-76
2023/06/10 11:10:08;;;;;;;6.00;5.13;;;25.00;99.90;;;;;;5038595;28;20215;-76
2023/06/10 11:12:46;;;;;;;7.18;5.07;;;25.30;99.90;;;;;;5038566;28;20227;-76
2023/06/10 11:15:12;;;;;;;5.30;4.80;;;25.80;99.90;;;;;;5040453;28;20211;-74
2023/06/10 11:18:10;;;;;;;8.52;4.80;;;26.10;99.90;;;;;;5039767;28;20176;-73
2023/06/10 11:20:48;;;;;;;6.95;5.30;;;26.50;99.90;;;;;;5021866;28;20259;-75
2023/06/10 11:23:33;;;;;;;7.47;4.25;;;26.90;99.90;;;;;;5019114;28;20208;-70
2023/06/10 11:26:14;;;;;;;6.05;4.72;;;27.00;99.90;;;;;;5016577;28;20731;-75
2023/06/10 11:28:47;;;;;;;7.68;4.82;;;27.10;99.90;;;;;;5013689;28;20208;-74
2023/06/10 11:31:42;;;;;;;7.15;5.10;;;27.20;99.90;;;;;;5026711;28;20206;-75
2023/06/10 11:34:08;;;;;;;5.43;4.68;;;27.20;99.90;;;;;;5015681;28;20231;-74
2023/06/10 11:36:42;;;;;;;6.88;6.20;;;27.00;99.90;;;;;;5017756;28;20212;-76
2023/06/10 11:39:08;;;;;;;5.85;5.20;;;27.00;99.90;;;;;;5033658;22;20232;-70
2023/06/10 11:41:35;;;;;;;7.72;5.60;;;26.60;99.90;;;;;;5024498;28;20188;-71
2023/06/10 11:44:08;;;;;;;8.40;7.60;;;26.40;99.90;;;;;;5024087;28;20216;-69
2023/06/10 11:46:35;;;;;;;7.95;5.95;;;26.40;99.90;;;;;;5028236;28;20308;-70
2023/06/10 11:49:02;;;;;;;5.60;4.75;;;26.10;99.90;;;;;;5027181;28;20227;-70
2023/06/10 11:51:33;;;;;;;17.80;13.18;;;26.10;99.90;;;;;;5025486;28;20219;-70
2023/06/10 11:53:59;;;;;;;6.80;4.93;;;26.10;99.90;;;;;;5025286;28;20238;-68
2023/06/10 11:56:27;;;;;;;7.57;5.20;;;26.20;99.90;;;;;;5026439;28;20177;-70
2023/06/10 11:58:57;;;;;;;6.75;5.20;;;26.40;99.90;;;;;;5025544;28;20232;-71
2023/06/10 12:01:25;;;;;;;7.13;5.25;;;26.30;99.90;;;;;;5025525;28;20629;-70
2023/06/10 12:04:02;;;;;;;7.07;5.30;;;26.20;99.90;;;;;;5024459;28;20254;-70
2023/06/10 12:06:47;;;;;;;9.35;5.80;;;26.10;99.90;;;;;;5025337;28;20204;-69
2023/06/10 12:09:33;;;;;;;6.93;5.97;;;26.20;99.90;;;;;;5022423;28;20727;-69
2023/06/10 12:12:04;;;;;;;7.00;5.40;;;26.10;99.90;;;;;;5028103;28;20254;-73
2023/06/10 12:14:58;;;;;;;9.65;6.03;;;26.10;99.90;;;;;;5026407;28;20179;-71
2023/06/10 12:17:36;;;;;;;8.95;5.93;;;26.00;99.90;;;;;;5029765;28;20216;-67
2023/06/10 12:20:26;;;;;;;8.77;5.40;;;26.10;99.90;;;;;;5028362;28;20231;-70
2023/06/10 12:22:52;;;;;;;11.32;6.70;;;26.10;99.90;;;;;;5019138;28;20369;-70
2023/06/10 12:25:28;;;;;;;9.50;5.82;;;26.00;99.90;;;;;;5025988;28;20300;-70
2023/06/10 12:27:55;;;;;;;6.80;6.00;;;25.90;99.90;;;;;;5025676;28;20216;-69
2023/06/10 12:30:24;;;;;;;6.75;5.95;;;26.00;99.90;;;;;;5028171;28;20881;-70
2023/06/10 12:32:52;;;;;;;7.00;5.70;;;26.10;99.90;;;;;;5027357;28;20276;-70
2023/06/10 12:35:24;;;;;;;8.35;5.82;;;26.30;99.90;;;;;;5027421;28;20180;-70
2023/06/10 12:38:10;;;;;;;7.68;5.35;;;26.30;99.90;;;;;;5018571;28;20219;-69
2023/06/10 12:40:39;;;;;;;7.55;5.78;;;26.40;99.90;;;;;;5023401;28;20216;-69
2023/06/10 12:43:05;;;;;;;6.25;5.45;;;26.20;99.90;;;;;;5021876;28;20208;-70
2023/06/10 12:45:33;;;;;;;9.07;6.13;;;26.30;99.90;;;;;;5026275;28;20227;-70
2023/06/10 12:48:08;;;;;;;8.63;6.47;;;26.40;99.90;;;;;;5024648;28;20193;-70